sensor_id;sensor_type;location;lat;lon;timestamp;P1;durP1;ratioP1;P2;durP2;ratioP2
12469;SDS011;36499;46.484;13.832;2023-06-10T00:02:20;5.50;;;5.00;;
12469;SDS011;36499;46.484;13.832;2023-06-10T00:04:47;7.87;;;5.17;;
12469;SDS011;36499;46.484;13.832;2023-06-10T00:07:15;6.77;;;5.00;;
12469;SDS011;36499;46.484;13.832;2023-06-10T00:09:42;11.03;;;5.47;;
12469;SDS011;36499;46.484;13.832;2023-06-10T00:12:10;7.37;;;5.30;;
12469;SDS011;36499;46.484;13.832;2023-06-10T00:14:40;5.37;;;4.87;;
12469;SDS011;36499;46.484;13.832;2023-06-10T00:17:07;7.40;;;5.20;;
12469;SDS011;36499;46.484;13.832;2023-06-10T00:19:35;6.73;;;4.90;;
12469;SDS011;36499;46.484;13.832;2023-06-10T00:22:02;6.20;;;4.93;;
12469;SDS011;36499;46.484;13.832;2023-06-10T00:24:29;5.03;;;4.53;;
12469;SDS011;36499;46.484;13.832;2023-06-10T00:26:57;5.90;;;5.00;;
12469;SDS011;36499;46.484;13.832;2023-06-10T00:29:25;8.67;;;5.20;;
12469;SDS011;36499;46.484;13.832;2023-06-10T00:31:52;6.57;;;5.00;;
12469;SDS011;36499;46.484;13.832;2023-06-10T00:34:22;6.47;;;4.87;;
12469;SDS011;36499;46.484;13.832;2023-06-10T00:36:49;8.53;;;5.20;;
12469;SDS011;36499;46.484;13.832;2023-06-10T00:39:16;5.43;;;4.93;;
12469;SDS011;36499;46.484;13.832;2023-06-10T00:41:43;5.63;;;4.80;;
12469;SDS011;36499;46.484;13.832;2023-06-10T00:44:10;5.70;;;5.10;;
12469;SDS011;36499;46.484;13.832;2023-06-10T00:46:39;7.77;;;4.77;;
12469;SDS011;36499;46.484;13.832;2023-06-10T00:49:07;9.67;;;5.43;;
12469;SDS011;36499;46.484;13.832;2023-06-10T00:51:35;5.57;;;4.97;;
12469;SDS011;36499;46.484;13.832;2023-06-10T00:54:02;5.60;;;5.10;;
12469;SDS011;36499;46.484;13.832;2023-06-10T00:56:30;8.60;;;4.67;;
12469;SDS011;36499;46.484;13.832;2023-06-10T00:58:59;6.70;;;4.80;;
12469;SDS011;36499;46.484;13.832;2023-06-10T01:01:26;5.60;;;4.73;;
12469;SDS011;36499;46.484;13.832;2023-06-10T01:03:56;5.93;;;5.10;;
12469;SDS011;36499;46.484;13.832;2023-06-10T01:06:29;5.33;;;4.73;;
12469;SDS011;36499;46.484;13.832;2023-06-10T01:09:13;6.33;;;5.10;;
12469;SDS011;36499;46.484;13.832;2023-06-10T01:11:52;6.27;;;5.63;;
12469;SDS011;36499;46.484;13.832;2023-06-10T01:14:34;5.47;;;4.90;;
12469;SDS011;36499;46.484;13.832;2023-06-10T01:17:03;5.37;;;4.87;;
12469;SDS011;36499;46.484;13.832;2023-06-10T01:19:35;5.50;;;5.00;;
12469;SDS011;36499;46.484;13.832;2023-06-10T01:22:03;8.03;;;5.23;;
12469;SDS011;36499;46.484;13.832;2023-06-10T01:24:30;6.63;;;5.13;;
12469;SDS011;36499;46.484;13.832;2023-06-10T01:26:59;5.30;;;4.80;;
12469;SDS011;36499;46.484;13.832;2023-06-10T01:29:33;7.47;;;5.10;;
12469;SDS011;36499;46.484;13.832;2023-06-10T01:32:11;6.93;;;5.40;;
12469;SDS011;36499;46.484;13.832;2023-06-10T01:34:45;6.47;;;5.00;;
12469;SDS011;36499;46.484;13.832;2023-06-10T01:37:17;7.20;;;5.10;;
12469;SDS011;36499;46.484;13.832;2023-06-10T01:39:49;4.83;;;4.43;;
12469;SDS011;36499;46.484;13.832;2023-06-10T01:42:17;9.20;;;5.50;;
12469;SDS011;36499;46.484;13.832;2023-06-10T01:44:44;6.90;;;5.50;;
12469;SDS011;36499;46.484;13.832;2023-06-10T01:47:11;5.80;;;5.30;;
12469;SDS011;36499;46.484;13.832;2023-06-10T01:49:38;9.53;;;5.53;;
12469;SDS011;36499;46.484;13.832;2023-06-10T01:52:06;5.47;;;4.73;;
12469;SDS011;36499;46.484;13.832;2023-06-10T01:54:35;5.57;;;5.00;;
12469;SDS011;36499;46.484;13.832;2023-06-10T01:57:02;8.27;;;5.00;;
12469;SDS011;36499;46.484;13.832;2023-06-10T01:59:31;7.50;;;5.00;;
12469;SDS011;36499;46.484;13.832;2023-06-10T02:01:58;6.03;;;5.30;;
12469;SDS011;36499;46.484;13.832;2023-06-10T02:04:25;5.80;;;5.13;;
12469;SDS011;36499;46.484;13.832;2023-06-10T02:06:52;7.47;;;5.07;;
12469;SDS011;36499;46.484;13.832;2023-06-10T02:09:20;5.80;;;5.17;;
12469;SDS011;36499;46.484;13.832;2023-06-10T02:11:49;5.40;;;4.90;;
12469;SDS011;36499;46.484;13.832;2023-06-10T02:14:16;6.00;;;5.40;;
12469;SDS011;36499;46.484;13.832;2023-06-10T02:16:43;7.43;;;5.33;;
12469;SDS011;36499;46.484;13.832;2023-06-10T02:19:11;6.27;;;5.60;;
12469;SDS011;36499;46.484;13.832;2023-06-10T02:21:38;6.37;;;5.77;;
12469;SDS011;36499;46.484;13.832;2023-06-10T02:24:06;5.87;;;5.27;;
12469;SDS011;36499;46.484;13.832;2023-06-10T02:26:33;7.13;;;5.80;;
12469;SDS011;36499;46.484;13.832;2023-06-10T02:29:02;6.03;;;5.43;;
12469;SDS011;36499;46.484;13.832;2023-06-10T02:31:29;6.87;;;5.03;;
12469;SDS011;36499;46.484;13.832;2023-06-10T02:33:56;5.37;;;4.87;;
12469;SDS011;36499;46.484;13.832;2023-06-10T02:36:23;5.03;;;4.50;;
12469;SDS011;36499;46.484;13.832;2023-06-10T02:38:52;6.17;;;5.57;;
12469;SDS011;36499;46.484;13.832;2023-06-10T02:41:19;5.87;;;5.33;;
12469;SDS011;36499;46.484;13.832;2023-06-10T02:43:47;6.17;;;5.57;;
12469;SDS011;36499;46.484;13.832;2023-06-10T02:46:15;10.20;;;6.03;;
12469;SDS011;36499;46.484;13.832;2023-06-10T02:48:42;7.20;;;5.80;;
12469;SDS011;36499;46.484;13.832;2023-06-10T02:51:10;6.20;;;5.57;;
12469;SDS011;36499;46.484;13.832;2023-06-10T02:53:37;5.73;;;5.20;;
12469;SDS011;36499;46.484;13.832;2023-06-10T02:56:04;6.03;;;5.43;;
12469;SDS011;36499;46.484;13.832;2023-06-10T02:58:31;6.23;;;5.63;;
12469;SDS011;36499;46.484;13.832;2023-06-10T03:00:58;6.33;;;5.77;;
12469;SDS011;36499;46.484;13.832;2023-06-10T03:03:26;5.70;;;5.20;;
12469;SDS011;36499;46.484;13.832;2023-06-10T03:05:55;7.07;;;5.30;;
12469;SDS011;36499;46.484;13.832;2023-06-10T03:08:24;6.07;;;5.37;;
12469;SDS011;36499;46.484;13.832;2023-06-10T03:10:51;9.60;;;5.67;;
12469;SDS011;36499;46.484;13.832;2023-06-10T03:13:18;7.33;;;5.10;;
12469;SDS011;36499;46.484;13.832;2023-06-10T03:15:46;6.47;;;5.70;;
12469;SDS011;36499;46.484;13.832;2023-06-10T03:18:13;5.40;;;4.90;;
12469;SDS011;36499;46.484;13.832;2023-06-10T03:20:41;8.07;;;5.53;;
12469;SDS011;36499;46.484;13.832;2023-06-10T03:23:09;6.03;;;5.43;;
12469;SDS011;36499;46.484;13.832;2023-06-10T03:25:36;6.53;;;5.50;;
12469;SDS011;36499;46.484;13.832;2023-06-10T03:28:03;6.33;;;5.33;;
12469;SDS011;36499;46.484;13.832;2023-06-10T03:30:30;5.97;;;5.43;;
12469;SDS011;36499;46.484;13.832;2023-06-10T03:32:57;6.83;;;5.37;;
12469;SDS011;36499;46.484;13.832;2023-06-10T03:35:26;6.23;;;5.73;;
12469;SDS011;36499;46.484;13.832;2023-06-10T03:37:54;5.80;;;5.30;;
12469;SDS011;36499;46.484;13.832;2023-06-10T03:40:21;5.83;;;5.30;;
12469;SDS011;36499;46.484;13.832;2023-06-10T03:42:48;5.63;;;5.13;;
12469;SDS011;36499;46.484;13.832;2023-06-10T03:45:15;8.07;;;5.87;;
12469;SDS011;36499;46.484;13.832;2023-06-10T03:47:42;6.20;;;5.57;;
12469;SDS011;36499;46.484;13.832;2023-06-10T03:50:10;6.10;;;5.60;;
12469;SDS011;36499;46.484;13.832;2023-06-10T03:52:37;6.93;;;5.90;;
12469;SDS011;36499;46.484;13.832;2023-06-10T03:55:07;7.50;;;6.10;;
12469;SDS011;36499;46.484;13.832;2023-06-10T03:57:36;6.33;;;5.73;;
12469;SDS011;36499;46.484;13.832;2023-06-10T04:00:03;6.23;;;5.63;;
12469;SDS011;36499;46.484;13.832;2023-06-10T04:02:36;6.67;;;5.97;;
12469;SDS011;36499;46.484;13.832;2023-06-10T04:05:07;7.47;;;5.60;;
12469;SDS011;36499;46.484;13.832;2023-06-10T04:07:34;6.97;;;6.27;;
12469;SDS011;36499;46.484;13.832;2023-06-10T04:10:01;6.60;;;5.70;;
12469;SDS011;36499;46.484;13.832;2023-06-10T04:12:30;8.37;;;5.63;;
12469;SDS011;36499;46.484;13.832;2023-06-10T04:14:57;6.47;;;5.83;;
12469;SDS011;36499;46.484;13.832;2023-06-10T04:17:24;8.37;;;6.50;;
12469;SDS011;36499;46.484;13.832;2023-06-10T04:19:51;8.47;;;6.37;;
12469;SDS011;36499;46.484;13.832;2023-06-10T04:22:19;8.00;;;6.53;;
12469;SDS011;36499;46.484;13.832;2023-06-10T04:24:47;7.83;;;6.70;;
12469;SDS011;36499;46.484;13.832;2023-06-10T04:27:14;7.40;;;6.70;;
12469;SDS011;36499;46.484;13.832;2023-06-10T04:29:43;7.57;;;5.90;;
12469;SDS011;36499;46.484;13.832;2023-06-10T04:32:10;7.40;;;6.17;;
12469;SDS011;36499;46.484;13.832;2023-06-10T04:34:37;7.23;;;6.53;;
12469;SDS011;36499;46.484;13.832;2023-06-10T04:37:05;7.90;;;6.83;;
12469;SDS011;36499;46.484;13.832;2023-06-10T04:39:32;8.00;;;7.07;;
12469;SDS011;36499;46.484;13.832;2023-06-10T04:41:59;7.90;;;7.03;;
12469;SDS011;36499;46.484;13.832;2023-06-10T04:44:26;7.10;;;6.50;;
12469;SDS011;36499;46.484;13.832;2023-06-10T04:46:55;7.97;;;7.20;;
12469;SDS011;36499;46.484;13.832;2023-06-10T04:49:22;6.87;;;6.17;;
12469;SDS011;36499;46.484;13.832;2023-06-10T04:51:49;7.33;;;6.43;;
12469;SDS011;36499;46.484;13.832;2023-06-10T04:54:16;7.40;;;6.50;;
12469;SDS011;36499;46.484;13.832;2023-06-10T04:56:43;6.57;;;5.97;;
12469;SDS011;36499;46.484;13.832;2023-06-10T04:59:11;7.83;;;5.90;;
12469;SDS011;36499;46.484;13.832;2023-06-10T05:01:39;8.07;;;6.20;;
12469;SDS011;36499;46.484;13.832;2023-06-10T05:04:08;6.97;;;6.37;;
12469;SDS011;36499;46.484;13.832;2023-06-10T05:06:35;7.20;;;6.50;;
12469;SDS011;36499;46.484;13.832;2023-06-10T05:09:02;7.57;;;6.47;;
12469;SDS011;36499;46.484;13.832;2023-06-10T05:11:29;6.67;;;6.03;;
12469;SDS011;36499;46.484;13.832;2023-06-10T05:13:56;7.40;;;6.63;;
12469;SDS011;36499;46.484;13.832;2023-06-10T05:16:23;7.07;;;6.33;;
12469;SDS011;36499;46.484;13.832;2023-06-10T05:18:50;9.67;;;7.23;;
12469;SDS011;36499;46.484;13.832;2023-06-10T05:21:19;9.57;;;6.80;;
12469;SDS011;36499;46.484;13.832;2023-06-10T05:23:46;8.93;;;7.20;;
12469;SDS011;36499;46.484;13.832;2023-06-10T05:26:13;6.83;;;6.23;;
12469;SDS011;36499;46.484;13.832;2023-06-10T05:28:40;6.60;;;5.87;;
12469;SDS011;36499;46.484;13.832;2023-06-10T05:31:07;7.60;;;6.00;;
12469;SDS011;36499;46.484;13.832;2023-06-10T05:33:34;6.40;;;5.80;;
12469;SDS011;36499;46.484;13.832;2023-06-10T05:36:01;6.57;;;5.97;;
12469;SDS011;36499;46.484;13.832;2023-06-10T05:38:30;7.80;;;5.83;;
12469;SDS011;36499;46.484;13.832;2023-06-10T05:40:57;6.33;;;5.73;;
12469;SDS011;36499;46.484;13.832;2023-06-10T05:43:24;7.37;;;5.23;;
12469;SDS011;36499;46.484;13.832;2023-06-10T05:45:52;6.00;;;5.50;;
12469;SDS011;36499;46.484;13.832;2023-06-10T05:48:21;6.00;;;5.50;;
12469;SDS011;36499;46.484;13.832;2023-06-10T05:50:48;6.77;;;6.10;;
12469;SDS011;36499;46.484;13.832;2023-06-10T05:53:16;6.13;;;5.57;;
12469;SDS011;36499;46.484;13.832;2023-06-10T05:55:44;6.00;;;5.40;;
12469;SDS011;36499;46.484;13.832;2023-06-10T05:58:12;5.50;;;5.00;;
12469;SDS011;36499;46.484;13.832;2023-06-10T06:00:39;8.30;;;6.33;;
12469;SDS011;36499;46.484;13.832;2023-06-10T06:03:07;7.30;;;6.60;;
12469;SDS011;36499;46.484;13.832;2023-06-10T06:05:35;6.63;;;5.43;;
12469;SDS011;36499;46.484;13.832;2023-06-10T06:08:03;8.17;;;5.40;;
12469;SDS011;36499;46.484;13.832;2023-06-10T06:10:31;6.23;;;5.17;;
12469;SDS011;36499;46.484;13.832;2023-06-10T06:13:00;6.40;;;4.80;;
12469;SDS011;36499;46.484;13.832;2023-06-10T06:15:27;6.93;;;6.20;;
12469;SDS011;36499;46.484;13.832;2023-06-10T06:17:55;6.00;;;5.20;;
12469;SDS011;36499;46.484;13.832;2023-06-10T06:20:22;6.83;;;5.60;;
12469;SDS011;36499;46.484;13.832;2023-06-10T06:22:50;5.90;;;5.30;;
12469;SDS011;36499;46.484;13.832;2023-06-10T06:25:17;5.80;;;5.30;;
12469;SDS011;36499;46.484;13.832;2023-06-10T06:27:44;5.93;;;5.43;;
12469;SDS011;36499;46.484;13.832;2023-06-10T06:30:12;5.20;;;4.70;;
12469;SDS011;36499;46.484;13.832;2023-06-10T06:32:39;7.70;;;5.30;;
12469;SDS011;36499;46.484;13.832;2023-06-10T06:35:07;6.30;;;5.70;;
12469;SDS011;36499;46.484;13.832;2023-06-10T06:37:35;6.60;;;5.20;;
12469;SDS011;36499;46.484;13.832;2023-06-10T06:40:02;6.00;;;5.37;;
12469;SDS011;36499;46.484;13.832;2023-06-10T06:42:31;6.17;;;5.63;;
12469;SDS011;36499;46.484;13.832;2023-06-10T06:44:58;6.10;;;5.50;;
12469;SDS011;36499;46.484;13.832;2023-06-10T06:47:26;6.07;;;5.47;;
12469;SDS011;36499;46.484;13.832;2023-06-10T06:49:53;5.87;;;4.90;;
12469;SDS011;36499;46.484;13.832;2023-06-10T06:52:20;5.50;;;5.00;;
12469;SDS011;36499;46.484;13.832;2023-06-10T06:54:48;7.13;;;5.37;;
12469;SDS011;36499;46.484;13.832;2023-06-10T06:57:15;6.13;;;5.13;;
12469;SDS011;36499;46.484;13.832;2023-06-10T06:59:42;5.40;;;4.90;;
12469;SDS011;36499;46.484;13.832;2023-06-10T07:02:09;6.27;;;5.20;;
12469;SDS011;36499;46.484;13.832;2023-06-10T07:04:38;6.33;;;5.30;;
12469;SDS011;36499;46.484;13.832;2023-06-10T07:07:06;5.73;;;5.23;;
12469;SDS011;36499;46.484;13.832;2023-06-10T07:09:34;5.40;;;4.90;;
12469;SDS011;36499;46.484;13.832;2023-06-10T07:12:02;6.47;;;4.80;;
12469;SDS011;36499;46.484;13.832;2023-06-10T07:14:30;5.47;;;4.97;;
12469;SDS011;36499;46.484;13.832;2023-06-10T07:16:57;5.63;;;5.13;;
12469;SDS011;36499;46.484;13.832;2023-06-10T07:19:24;6.00;;;4.73;;
12469;SDS011;36499;46.484;13.832;2023-06-10T07:21:53;5.63;;;5.13;;
12469;SDS011;36499;46.484;13.832;2023-06-10T07:24:20;5.33;;;4.83;;
12469;SDS011;36499;46.484;13.832;2023-06-10T07:26:47;6.57;;;5.90;;
12469;SDS011;36499;46.484;13.832;2023-06-10T07:29:14;6.10;;;5.50;;
12469;SDS011;36499;46.484;13.832;2023-06-10T07:31:41;5.47;;;4.97;;
12469;SDS011;36499;46.484;13.832;2023-06-10T07:34:08;5.50;;;5.00;;
12469;SDS011;36499;46.484;13.832;2023-06-10T07:36:35;5.30;;;4.80;;
12469;SDS011;36499;46.484;13.832;2023-06-10T07:39:04;6.37;;;5.13;;
12469;SDS011;36499;46.484;13.832;2023-06-10T07:41:32;5.63;;;5.13;;
12469;SDS011;36499;46.484;13.832;2023-06-10T07:43:59;5.73;;;5.10;;
12469;SDS011;36499;46.484;13.832;2023-06-10T07:46:26;5.57;;;4.77;;
12469;SDS011;36499;46.484;13.832;2023-06-10T07:48:53;5.57;;;4.77;;
12469;SDS011;36499;46.484;13.832;2023-06-10T07:51:21;4.97;;;4.47;;
12469;SDS011;36499;46.484;13.832;2023-06-10T07:53:48;6.67;;;4.77;;
12469;SDS011;36499;46.484;13.832;2023-06-10T07:56:17;6.13;;;5.13;;
12469;SDS011;36499;46.484;13.832;2023-06-10T07:58:45;5.87;;;5.07;;
12469;SDS011;36499;46.484;13.832;2023-06-10T08:01:12;5.53;;;5.03;;
12469;SDS011;36499;46.484;13.832;2023-06-10T08:03:39;5.80;;;5.20;;
12469;SDS011;36499;46.484;13.832;2023-06-10T08:06:06;7.53;;;6.80;;
12469;SDS011;36499;46.484;13.832;2023-06-10T08:08:36;5.63;;;4.63;;
12469;SDS011;36499;46.484;13.832;2023-06-10T08:11:06;6.33;;;4.73;;
12469;SDS011;36499;46.484;13.832;2023-06-10T08:13:35;8.53;;;4.80;;
12469;SDS011;36499;46.484;13.832;2023-06-10T08:16:02;5.23;;;4.70;;
12469;SDS011;36499;46.484;13.832;2023-06-10T08:18:30;5.53;;;5.03;;
12469;SDS011;36499;46.484;13.832;2023-06-10T08:20:57;4.97;;;4.57;;
12469;SDS011;36499;46.484;13.832;2023-06-10T08:23:24;5.13;;;4.73;;
12469;SDS011;36499;46.484;13.832;2023-06-10T08:25:51;5.00;;;4.50;;
12469;SDS011;36499;46.484;13.832;2023-06-10T08:28:18;10.00;;;5.00;;
12469;SDS011;36499;46.484;13.832;2023-06-10T08:30:47;5.47;;;4.47;;
12469;SDS011;36499;46.484;13.832;2023-06-10T08:33:14;6.70;;;5.10;;
12469;SDS011;36499;46.484;13.832;2023-06-10T08:35:41;5.00;;;4.60;;
12469;SDS011;36499;46.484;13.832;2023-06-10T08:38:08;5.40;;;4.90;;
12469;SDS011;36499;46.484;13.832;2023-06-10T08:40:35;7.97;;;5.00;;
12469;SDS011;36499;46.484;13.832;2023-06-10T08:43:04;5.47;;;4.97;;
12469;SDS011;36499;46.484;13.832;2023-06-10T08:45:34;5.90;;;5.07;;
12469;SDS011;36499;46.484;13.832;2023-06-10T08:48:05;5.57;;;4.87;;
12469;SDS011;36499;46.484;13.832;2023-06-10T08:50:33;5.20;;;4.50;;
12469;SDS011;36499;46.484;13.832;2023-06-10T08:53:04;6.10;;;5.50;;
12469;SDS011;36499;46.484;13.832;2023-06-10T08:55:33;5.33;;;4.83;;
12469;SDS011;36499;46.484;13.832;2023-06-10T08:58:03;5.83;;;5.00;;
12469;SDS011;36499;46.484;13.832;2023-06-10T09:00:31;5.00;;;4.50;;
12469;SDS011;36499;46.484;13.832;2023-06-10T09:03:00;4.93;;;4.30;;
12469;SDS011;36499;46.484;13.832;2023-06-10T09:05:30;4.60;;;4.20;;
12469;SDS011;36499;46.484;13.832;2023-06-10T09:08:04;5.40;;;4.90;;
12469;SDS011;36499;46.484;13.832;2023-06-10T09:10:34;4.90;;;4.40;;
12469;SDS011;36499;46.484;13.832;2023-06-10T09:13:01;5.97;;;4.80;;
12469;SDS011;36499;46.484;13.832;2023-06-10T09:15:28;5.20;;;4.70;;
12469;SDS011;36499;46.484;13.832;2023-06-10T09:17:55;5.10;;;4.60;;
12469;SDS011;36499;46.484;13.832;2023-06-10T09:20:22;4.93;;;4.50;;
12469;SDS011;36499;46.484;13.832;2023-06-10T09:22:51;6.27;;;4.40;;
12469;SDS011;36499;46.484;13.832;2023-06-10T09:25:19;4.90;;;4.50;;
12469;SDS011;36499;46.484;13.832;2023-06-10T09:28:00;4.90;;;4.40;;
12469;SDS011;36499;46.484;13.832;2023-06-10T09:30:28;6.73;;;4.17;;
12469;SDS011;36499;46.484;13.832;2023-06-10T09:32:57;5.70;;;4.90;;
12469;SDS011;36499;46.484;13.832;2023-06-10T09:35:26;5.03;;;4.57;;
12469;SDS011;36499;46.484;13.832;2023-06-10T09:37:57;4.50;;;4.10;;
12469;SDS011;36499;46.484;13.832;2023-06-10T09:40:27;4.70;;;4.30;;
12469;SDS011;36499;46.484;13.832;2023-06-10T09:42:55;5.47;;;4.97;;
12469;SDS011;36499;46.484;13.832;2023-06-10T09:45:28;6.40;;;4.87;;
12469;SDS011;36499;46.484;13.832;2023-06-10T09:47:57;4.93;;;4.53;;
12469;SDS011;36499;46.484;13.832;2023-06-10T09:50:25;5.47;;;4.60;;
12469;SDS011;36499;46.484;13.832;2023-06-10T09:52:52;5.87;;;4.73;;
12469;SDS011;36499;46.484;13.832;2023-06-10T09:55:21;24.17;;;5.30;;
12469;SDS011;36499;46.484;13.832;2023-06-10T09:57:52;6.77;;;6.17;;
12469;SDS011;36499;46.484;13.832;2023-06-10T10:00:21;5.17;;;4.77;;
12469;SDS011;36499;46.484;13.832;2023-06-10T10:02:51;5.07;;;4.57;;
12469;SDS011;36499;46.484;13.832;2023-06-10T10:05:20;5.17;;;4.70;;
12469;SDS011;36499;46.484;13.832;2023-06-10T10:07:49;7.57;;;6.57;;
12469;SDS011;36499;46.484;13.832;2023-06-10T10:10:17;5.93;;;4.33;;
12469;SDS011;36499;46.484;13.832;2023-06-10T10:12:47;8.67;;;6.37;;
12469;SDS011;36499;46.484;13.832;2023-06-10T10:15:20;5.60;;;5.00;;
12469;SDS011;36499;46.484;13.832;2023-06-10T10:17:52;7.60;;;5.17;;
12469;SDS011;36499;46.484;13.832;2023-06-10T10:20:27;5.70;;;4.53;;
12469;SDS011;36499;46.484;13.832;2023-06-10T10:22:59;4.83;;;4.40;;
12469;SDS011;36499;46.484;13.832;2023-06-10T10:25:33;4.87;;;4.37;;
12469;SDS011;36499;46.484;13.832;2023-06-10T10:28:06;4.90;;;4.40;;
12469;SDS011;36499;46.484;13.832;2023-06-10T10:30:38;4.83;;;4.37;;
12469;SDS011;36499;46.484;13.832;2023-06-10T10:33:09;4.53;;;4.13;;
12469;SDS011;36499;46.484;13.832;2023-06-10T10:35:43;4.20;;;3.90;;
12469;SDS011;36499;46.484;13.832;2023-06-10T10:38:12;5.20;;;4.70;;
12469;SDS011;36499;46.484;13.832;2023-06-10T10:40:42;4.83;;;4.40;;
12469;SDS011;36499;46.484;13.832;2023-06-10T10:43:11;6.93;;;4.23;;
12469;SDS011;36499;46.484;13.832;2023-06-10T10:45:40;5.97;;;5.37;;
12469;SDS011;36499;46.484;13.832;2023-06-10T10:48:08;5.03;;;4.60;;
12469;SDS011;36499;46.484;13.832;2023-06-10T10:50:37;6.43;;;4.10;;
12469;SDS011;36499;46.484;13.832;2023-06-10T10:53:05;4.80;;;4.27;;
12469;SDS011;36499;46.484;13.832;2023-06-10T10:55:32;6.27;;;4.60;;
12469;SDS011;36499;46.484;13.832;2023-06-10T10:58:02;7.70;;;6.17;;
12469;SDS011;36499;46.484;13.832;2023-06-10T11:00:32;4.83;;;4.40;;
12469;SDS011;36499;46.484;13.832;2023-06-10T11:03:04;6.07;;;4.20;;
12469;SDS011;36499;46.484;13.832;2023-06-10T11:05:37;5.37;;;4.27;;
12469;SDS011;36499;46.484;13.832;2023-06-10T11:08:10;7.13;;;5.10;;
12469;SDS011;36499;46.484;13.832;2023-06-10T11:10:37;7.97;;;5.10;;
12469;SDS011;36499;46.484;13.832;2023-06-10T11:13:09;10.13;;;4.90;;
12469;SDS011;36499;46.484;13.832;2023-06-10T11:15:43;5.33;;;4.83;;
12469;SDS011;36499;46.484;13.832;2023-06-10T11:18:13;5.23;;;4.73;;
12469;SDS011;36499;46.484;13.832;2023-06-10T11:20:54;4.87;;;4.47;;
12469;SDS011;36499;46.484;13.832;2023-06-10T11:23:33;5.03;;;4.53;;
12469;SDS011;36499;46.484;13.832;2023-06-10T11:26:13;4.67;;;4.27;;
12469;SDS011;36499;46.484;13.832;2023-06-10T11:29:10;7.17;;;4.57;;
12469;SDS011;36499;46.484;13.832;2023-06-10T11:31:44;5.33;;;4.83;;
12469;SDS011;36499;46.484;13.832;2023-06-10T11:34:15;4.67;;;4.27;;
12469;SDS011;36499;46.484;13.832;2023-06-10T11:36:50;4.83;;;4.00;;
12469;SDS011;36499;46.484;13.832;2023-06-10T11:39:19;5.43;;;4.50;;
12469;SDS011;36499;46.484;13.832;2023-06-10T11:41:48;4.40;;;4.00;;
12469;SDS011;36499;46.484;13.832;2023-06-10T11:44:18;5.13;;;4.10;;
12469;SDS011;36499;46.484;13.832;2023-06-10T11:46:47;4.03;;;3.63;;
12469;SDS011;36499;46.484;13.832;2023-06-10T11:49:15;5.50;;;4.63;;
12469;SDS011;36499;46.484;13.832;2023-06-10T11:51:42;4.33;;;3.93;;
12469;SDS011;36499;46.484;13.832;2023-06-10T11:54:14;4.60;;;4.20;;
12469;SDS011;36499;46.484;13.832;2023-06-10T11:56:42;6.13;;;4.40;;
12469;SDS011;36499;46.484;13.832;2023-06-10T11:59:09;5.03;;;4.10;;
12469;SDS011;36499;46.484;13.832;2023-06-10T12:01:42;4.73;;;4.33;;
12469;SDS011;36499;46.484;13.832;2023-06-10T12:04:11;6.77;;;4.53;;
12469;SDS011;36499;46.484;13.832;2023-06-10T12:06:40;5.10;;;4.10;;
12469;SDS011;36499;46.484;13.832;2023-06-10T12:09:16;3.63;;;3.33;;
12469;SDS011;36499;46.484;13.832;2023-06-10T12:11:45;4.47;;;3.80;;
12469;SDS011;36499;46.484;13.832;2023-06-10T12:17:24;4.67;;;4.20;;
12469;SDS011;36499;46.484;13.832;2023-06-10T12:20:04;3.60;;;3.30;;
12469;SDS011;36499;46.484;13.832;2023-06-10T12:22:36;4.40;;;3.93;;
12469;SDS011;36499;46.484;13.832;2023-06-10T12:25:05;5.07;;;3.70;;
12469;SDS011;36499;46.484;13.832;2023-06-10T12:27:34;4.20;;;3.80;;
12469;SDS011;36499;46.484;13.832;2023-06-10T12:30:03;6.13;;;5.53;;
12469;SDS011;36499;46.484;13.832;2023-06-10T12:32:36;4.93;;;4.53;;
12469;SDS011;36499;46.484;13.832;2023-06-10T12:35:09;4.47;;;4.07;;
12469;SDS011;36499;46.484;13.832;2023-06-10T12:37:38;5.20;;;4.10;;
12469;SDS011;36499;46.484;13.832;2023-06-10T12:40:05;4.27;;;3.90;;
12469;SDS011;36499;46.484;13.832;2023-06-10T12:42:35;3.97;;;3.57;;
12469;SDS011;36499;46.484;13.832;2023-06-10T12:45:03;4.33;;;3.93;;
12469;SDS011;36499;46.484;13.832;2023-06-10T12:47:34;5.07;;;3.60;;
12469;SDS011;36499;46.484;13.832;2023-06-10T12:50:05;4.70;;;3.70;;
12469;SDS011;36499;46.484;13.832;2023-06-10T12:52:33;4.10;;;3.80;;
12469;SDS011;36499;46.484;13.832;2023-06-10T12:55:00;5.23;;;3.83;;
12469;SDS011;36499;46.484;13.832;2023-06-10T12:57:29;4.20;;;3.90;;
12469;SDS011;36499;46.484;13.832;2023-06-10T12:59:56;4.07;;;3.67;;
12469;SDS011;36499;46.484;13.832;2023-06-10T13:02:28;4.37;;;3.87;;
12469;SDS011;36499;46.484;13.832;2023-06-10T13:04:58;3.90;;;3.50;;
12469;SDS011;36499;46.484;13.832;2023-06-10T13:07:25;8.60;;;4.00;;
12469;SDS011;36499;46.484;13.832;2023-06-10T13:09:52;4.60;;;3.70;;
12469;SDS011;36499;46.484;13.832;2023-06-10T13:12:19;4.27;;;3.70;;
12469;SDS011;36499;46.484;13.832;2023-06-10T13:14:46;4.23;;;3.83;;
12469;SDS011;36499;46.484;13.832;2023-06-10T13:17:13;4.17;;;3.77;;
12469;SDS011;36499;46.484;13.832;2023-06-10T13:19:40;4.47;;;4.07;;
12469;SDS011;36499;46.484;13.832;2023-06-10T13:22:09;4.77;;;4.37;;
12469;SDS011;36499;46.484;13.832;2023-06-10T13:24:38;4.67;;;4.27;;
12469;SDS011;36499;46.484;13.832;2023-06-10T13:27:06;5.20;;;4.70;;
12469;SDS011;36499;46.484;13.832;2023-06-10T13:29:33;5.40;;;4.27;;
12469;SDS011;36499;46.484;13.832;2023-06-10T13:32:00;6.23;;;4.20;;
12469;SDS011;36499;46.484;13.832;2023-06-10T13:34:27;4.43;;;4.03;;
12469;SDS011;36499;46.484;13.832;2023-06-10T13:36:54;4.37;;;3.97;;
12469;SDS011;36499;46.484;13.832;2023-06-10T13:39:22;7.10;;;6.40;;
12469;SDS011;36499;46.484;13.832;2023-06-10T13:41:49;5.03;;;4.50;;
12469;SDS011;36499;46.484;13.832;2023-06-10T13:44:17;4.47;;;3.90;;
12469;SDS011;36499;46.484;13.832;2023-06-10T13:46:44;4.70;;;4.20;;
12469;SDS011;36499;46.484;13.832;2023-06-10T13:49:11;4.50;;;4.10;;
12469;SDS011;36499;46.484;13.832;2023-06-10T13:51:38;4.43;;;4.10;;
12469;SDS011;36499;46.484;13.832;2023-06-10T13:54:05;4.90;;;4.47;;
12469;SDS011;36499;46.484;13.832;2023-06-10T13:56:33;6.63;;;5.07;;
12469;SDS011;36499;46.484;13.832;2023-06-10T13:59:03;5.83;;;4.70;;
12469;SDS011;36499;46.484;13.832;2023-06-10T14:01:30;5.70;;;5.17;;
12469;SDS011;36499;46.484;13.832;2023-06-10T14:03:57;6.73;;;6.13;;
12469;SDS011;36499;46.484;13.832;2023-06-10T14:06:25;9.70;;;8.73;;
12469;SDS011;36499;46.484;13.832;2023-06-10T14:08:53;7.57;;;5.60;;
12469;SDS011;36499;46.484;13.832;2023-06-10T14:11:21;5.53;;;4.97;;
12469;SDS011;36499;46.484;13.832;2023-06-10T14:13:49;5.93;;;5.30;;
12469;SDS011;36499;46.484;13.832;2023-06-10T14:16:16;5.50;;;5.00;;
12469;SDS011;36499;46.484;13.832;2023-06-10T14:18:43;5.80;;;4.90;;
12469;SDS011;36499;46.484;13.832;2023-06-10T14:21:10;5.80;;;5.27;;
12469;SDS011;36499;46.484;13.832;2023-06-10T14:23:37;6.30;;;5.70;;
12469;SDS011;36499;46.484;13.832;2023-06-10T14:26:05;5.63;;;5.13;;
12469;SDS011;36499;46.484;13.832;2023-06-10T14:28:32;7.13;;;5.77;;
12469;SDS011;36499;46.484;13.832;2023-06-10T14:31:00;5.40;;;4.90;;
12469;SDS011;36499;46.484;13.832;2023-06-10T14:33:28;6.10;;;5.50;;
12469;SDS011;36499;46.484;13.832;2023-06-10T14:35:56;6.83;;;6.10;;
12469;SDS011;36499;46.484;13.832;2023-06-10T14:38:23;6.40;;;5.73;;
12469;SDS011;36499;46.484;13.832;2023-06-10T14:40:50;6.27;;;5.63;;
12469;SDS011;36499;46.484;13.832;2023-06-10T14:43:18;5.50;;;5.00;;
12469;SDS011;36499;46.484;13.832;2023-06-10T14:45:45;8.90;;;6.00;;